Time;durP1;ratioP1;P1;durP2;ratioP2;P2;SDS_P1;SDS_P2;PMS_P1;PMS_P2;Temp;Humidity;BMP_temperature;BMP_pressure;BME280_temperature;BME280_humidity;BME280_pressure;Samples;Min_cycle;Max_cycle;Signal;HPM_P1;HPM_P2
2022/07/12 00:02:06;;;;;;;6.00;4.40;;;;;;;-148.88;100.00;76177.41;5092907;28;20028;-76
2022/07/12 00:04:31;;;;;;;5.15;4.55;;;;;;;-148.88;100.00;76175.38;5092995;28;20465;-76
2022/07/12 00:06:56;;;;;;;5.60;4.30;;;;;;;-148.88;100.00;76183.50;5091551;28;20116;-77
2022/07/12 00:09:22;;;;;;;5.50;4.47;;;;;;;-148.88;100.00;76187.56;5094622;28;20020;-76
2022/07/12 00:11:47;;;;;;;6.80;4.95;;;;;;;-148.88;100.00;76195.69;5095436;28;20038;-77
2022/07/12 00:14:13;;;;;;;5.22;4.55;;;;;;;-148.88;100.00;76195.69;5096694;28;20495;-76
2022/07/12 00:16:38;;;;;;;5.07;4.55;;;;;;;-148.88;100.00;76203.81;5096417;28;20481;-75
2022/07/12 00:19:04;;;;;;;6.85;5.00;;;;;;;-148.88;100.00;76220.06;5095197;28;20024;-77
2022/07/12 00:21:29;;;;;;;5.30;4.80;;;;;;;-148.88;100.00;76224.13;5095571;28;20024;-77
2022/07/12 00:23:55;;;;;;;5.65;4.70;;;;;;;-148.88;100.00;76240.38;5096876;28;20024;-77
2022/07/12 00:26:20;;;;;;;6.03;5.43;;;;;;;-148.88;100.00;76234.28;5095770;28;20030;-77
2022/07/12 00:28:46;;;;;;;6.18;5.30;;;;;;;-148.88;100.00;76242.41;5097556;28;20016;-76
2022/07/12 00:31:11;;;;;;;8.43;5.32;;;;;;;-148.88;100.00;76244.44;5096704;28;20388;-77
2022/07/12 00:33:36;;;;;;;5.85;5.13;;;;;;;-148.88;100.00;76248.50;5096425;28;20020;-77
2022/07/12 00:36:02;;;;;;;6.97;5.57;;;;;;;-148.88;100.00;76244.44;5096274;28;20456;-77
2022/07/12 00:38:28;;;;;;;6.78;5.53;;;;;;;-148.88;100.00;76240.38;5096046;28;20089;-77
2022/07/12 00:40:53;;;;;;;7.90;5.28;;;;;;;-148.88;100.00;76240.38;5095903;28;20020;-77
2022/07/12 00:43:18;;;;;;;6.50;5.80;;;;;;;-148.88;100.00;76240.38;5096037;28;20205;-77
2022/07/12 00:45:44;;;;;;;7.95;5.07;;;;;;;-148.88;100.00;76248.50;5094519;28;20030;-77
2022/07/12 00:48:10;;;;;;;6.68;5.38;;;;;;;-148.88;100.00;76250.53;5094392;28;20022;-77
2022/07/12 00:50:36;;;;;;;6.28;5.63;;;;;;;-148.88;100.00;76256.63;5095604;28;20031;-77
2022/07/12 00:53:02;;;;;;;6.43;5.28;;;;;;;-148.88;100.00;76252.56;5095748;28;20024;-77
2022/07/12 00:55:27;;;;;;;7.72;5.40;;;;;;;-148.88;100.00;76250.53;5095712;28;20020;-77
2022/07/12 00:57:53;;;;;;;6.47;5.43;;;;;;;-148.88;100.00;76248.50;5095999;28;20062;-77
2022/07/12 01:00:24;;;;;;;6.65;5.28;;;;;;;-148.88;100.00;76260.69;5096080;28;20028;-77
2022/07/12 01:02:52;;;;;;;7.18;5.28;;;;;;;-148.88;100.00;76268.81;5096014;28;20028;-77
2022/07/12 01:05:17;;;;;;;7.07;5.43;;;;;;;-148.88;100.00;76285.06;5095810;28;20495;-77
2022/07/12 01:07:44;;;;;;;7.53;5.70;;;;;;;-148.88;100.00;76274.91;5094725;28;20032;-76
2022/07/12 01:10:09;;;;;;;6.38;5.65;;;;;;;-148.88;100.00;76274.91;5094252;28;20362;-77
2022/07/12 01:12:35;;;;;;;8.10;5.70;;;;;;;-148.88;100.00;76268.81;5095550;28;20534;-77
2022/07/12 01:15:01;;;;;;;8.38;6.10;;;;;;;-148.88;100.00;76260.69;5095427;28;20035;-77
2022/07/12 01:17:28;;;;;;;6.82;5.30;;;;;;;-148.88;100.00;76252.56;5095095;28;20024;-76
2022/07/12 01:19:55;;;;;;;8.23;6.30;;;;;;;-148.88;100.00;76268.81;5094465;28;20030;-76
2022/07/12 01:22:26;;;;;;;6.25;5.65;;;;;;;-148.88;100.00;76258.66;5094002;28;20106;-76
2022/07/12 01:24:51;;;;;;;6.53;5.45;;;;;;;-148.88;100.00;76258.66;5093902;28;20045;-76
2022/07/12 01:27:17;;;;;;;7.20;5.15;;;;;;;-148.88;100.00;76270.84;5095218;28;20024;-76
2022/07/12 01:29:43;;;;;;;8.18;5.40;;;;;;;-148.88;100.00;76272.88;5094926;28;20095;-77
2022/07/12 01:32:24;;;;;;;6.50;5.40;;;;;;;-148.88;100.00;76264.75;5094844;28;20429;-76
2022/07/12 01:35:00;;;;;;;5.72;4.97;;;;;;;-148.88;100.00;76258.66;5095219;28;20476;-76
2022/07/12 01:37:30;;;;;;;8.63;5.72;;;;;;;-148.88;100.00;76252.56;5093601;28;20028;-76
2022/07/12 01:39:57;;;;;;;6.00;4.75;;;;;;;-148.88;100.00;76278.97;5095124;28;20016;-76
2022/07/12 01:42:24;;;;;;;4.50;3.97;;;;;;;-148.88;100.00;76287.09;5094668;28;20023;-76
2022/07/12 01:44:51;;;;;;;5.03;4.20;;;;;;;-148.88;100.00;76281.00;5093572;28;20024;-76
2022/07/12 01:47:25;;;;;;;5.70;4.70;;;;;;;-148.88;100.00;76299.28;5094605;28;20393;-75
2022/07/12 01:49:50;;;;;;;4.97;4.47;;;;;;;-148.88;100.00;76309.44;5094537;28;20052;-75
2022/07/12 01:52:17;;;;;;;5.60;4.93;;;;;;;-148.88;100.00;76321.63;5094707;28;20038;-75
2022/07/12 01:54:42;;;;;;;6.40;5.75;;;;;;;-148.88;100.00;76333.81;5094592;28;20089;-76
2022/07/12 01:57:08;;;;;;;5.97;5.15;;;;;;;-148.88;100.00;76335.84;5094642;28;20027;-75
2022/07/12 01:59:34;;;;;;;6.38;5.70;;;;;;;-148.88;100.00;76331.78;5094463;28;20389;-75
2022/07/12 02:02:00;;;;;;;6.40;5.80;;;;;;;-148.88;100.00;76325.69;5094627;28;20024;-75
2022/07/12 02:04:26;;;;;;;6.45;5.75;;;;;;;-148.88;100.00;76337.88;5093122;28;20485;-76
2022/07/12 02:06:51;;;;;;;6.65;5.85;;;;;;;-148.88;100.00;76325.69;5094510;28;20035;-75
2022/07/12 02:09:17;;;;;;;7.07;5.55;;;;;;;-148.88;100.00;76321.63;5094127;28;20024;-75
2022/07/12 02:11:44;;;;;;;7.05;6.35;;;;;;;-148.88;100.00;76325.69;5094487;28;20028;-76
2022/07/12 02:14:12;;;;;;;6.63;5.88;;;;;;;-148.88;100.00;76325.69;5094153;28;20389;-76
2022/07/12 02:16:38;;;;;;;7.65;6.80;;;;;;;-148.88;100.00;76329.75;5094207;28;20020;-76
2022/07/12 02:19:03;;;;;;;8.43;7.40;;;;;;;-148.88;100.00;76323.66;5094245;28;20036;-75
2022/07/12 02:21:28;;;;;;;8.02;7.22;;;;;;;-148.88;100.00;76321.63;5094325;28;20102;-75
2022/07/12 02:23:53;;;;;;;8.82;7.40;;;;;;;-148.88;100.00;76317.56;5094141;28;20482;-75
2022/07/12 02:26:19;;;;;;;7.30;6.57;;;;;;;-148.88;100.00;76317.56;5094097;28;20020;-76
2022/07/12 02:28:44;;;;;;;8.15;7.30;;;;;;;-148.88;100.00;76331.78;5093905;28;20098;-75
2022/07/12 02:31:10;;;;;;;10.15;9.05;;;;;;;-148.88;100.00;76337.88;5091882;28;20115;-75
2022/07/12 02:33:35;;;;;;;9.68;8.73;;;;;;;-148.88;100.00;76341.94;5092936;28;20024;-75
2022/07/12 02:36:02;;;;;;;10.10;8.88;;;;;;;-148.88;100.00;76343.97;5094052;28;20400;-76
2022/07/12 02:38:27;;;;;;;9.77;8.77;;;;;;;-148.88;100.00;76346.00;5092998;28;20028;-76
2022/07/12 02:40:53;;;;;;;10.23;9.10;;;;;;;-148.88;100.00;76343.97;5095211;28;20028;-77
2022/07/12 02:43:18;;;;;;;9.50;8.50;;;;;;;-148.88;100.00;76354.13;5095593;28;20477;-76
2022/07/12 02:45:44;;;;;;;9.10;8.23;;;;;;;-148.88;100.00;76362.25;5094743;28;20019;-75
2022/07/12 02:48:12;;;;;;;8.88;7.90;;;;;;;-148.88;100.00;76364.28;5094539;28;20064;-76
2022/07/12 02:50:40;;;;;;;9.43;7.82;;;;;;;-148.88;100.00;76364.28;5093300;28;20030;-77
2022/07/12 02:53:08;;;;;;;8.10;7.20;;;;;;;-148.88;100.00;76354.13;5094747;28;20043;-76
2022/07/12 02:55:34;;;;;;;6.95;6.25;;;;;;;-148.88;100.00;76360.22;5095164;28;20024;-76
2022/07/12 02:58:00;;;;;;;7.53;6.80;;;;;;;-148.88;100.00;76374.44;5095295;28;20457;-76
2022/07/12 03:00:25;;;;;;;11.20;9.13;;;;;;;-148.88;100.00;76386.63;5094894;28;20028;-76
2022/07/12 03:02:50;;;;;;;12.40;9.18;;;;;;;-148.88;100.00;76390.69;5095495;28;20542;-76
2022/07/12 03:05:16;;;;;;;10.38;9.27;;;;;;;-148.88;100.00;76402.88;5093667;28;20466;-76
2022/07/12 03:07:41;;;;;;;11.05;9.60;;;;;;;-148.88;100.00;76419.16;5095629;28;20020;-76
2022/07/12 03:10:07;;;;;;;13.20;10.45;;;;;;;-148.88;100.00;76406.94;5095627;28;20020;-76
2022/07/12 03:12:32;;;;;;;14.38;10.75;;;;;;;-148.88;100.00;76406.94;5095416;28;20060;-76
2022/07/12 03:14:58;;;;;;;13.05;10.80;;;;;;;-148.88;100.00;76417.09;5095762;28;20085;-76
2022/07/12 03:17:23;;;;;;;13.45;10.07;;;;;;;-148.88;100.00;76419.16;5094694;28;20024;-77
2022/07/12 03:19:49;;;;;;;13.48;10.15;;;;;;;-148.88;100.00;76431.34;5094862;28;20074;-77
2022/07/12 03:22:14;;;;;;;12.65;10.20;;;;;;;-148.88;100.00;76439.47;5095818;28;20481;-75
2022/07/12 03:24:39;;;;;;;14.60;11.00;;;;;;;-148.88;100.00;76431.34;5094841;28;20032;-76
2022/07/12 03:27:05;;;;;;;15.55;10.93;;;;;;;-148.88;100.00;76439.47;5095632;28;20031;-76
2022/07/12 03:29:30;;;;;;;14.70;10.82;;;;;;;-148.88;100.00;76435.41;5095468;28;20024;-75
2022/07/12 03:31:55;;;;;;;17.88;11.82;;;;;;;-148.88;100.00;76437.44;5095417;28;20020;-75
2022/07/12 03:34:21;;;;;;;17.05;12.88;;;;;;;-148.88;100.00;76431.34;5095058;28;20052;-76
2022/07/12 03:36:46;;;;;;;18.90;13.13;;;;;;;-148.88;100.00;76433.38;5094897;28;20020;-75
2022/07/12 03:39:11;;;;;;;16.77;12.23;;;;;;;-148.88;100.00;76431.34;5096448;28;20074;-75
2022/07/12 03:41:37;;;;;;;21.80;13.85;;;;;;;-148.88;100.00;76437.44;5096782;28;20031;-75
2022/07/12 03:44:02;;;;;;;18.27;14.38;;;;;;;-148.88;100.00;76427.28;5098720;28;20027;-76
2022/07/12 03:46:27;;;;;;;20.92;15.57;;;;;;;-148.88;100.00;76415.06;5099135;28;20024;-76
2022/07/12 03:48:53;;;;;;;18.83;15.60;;;;;;;-148.88;100.00;76411.00;5098685;28;20016;-76
2022/07/12 03:51:18;;;;;;;19.10;14.82;;;;;;;-148.88;100.00;76402.88;5097787;28;20103;-76
2022/07/12 03:53:43;;;;;;;18.15;15.10;;;;;;;-148.88;100.00;76394.75;5098100;28;20023;-76
2022/07/12 03:56:08;;;;;;;20.92;15.38;;;;;;;-148.88;100.00;76394.75;5098425;28;20031;-76
2022/07/12 03:58:34;;;;;;;20.02;15.80;;;;;;;-148.88;100.00;76386.63;5096788;28;20086;-76
2022/07/12 04:00:59;;;;;;;18.13;14.32;;;;;;;-148.88;100.00;76390.69;5097873;28;20153;-75
2022/07/12 04:03:24;;;;;;;19.95;14.80;;;;;;;-148.88;100.00;76378.50;5096919;28;20016;-76
2022/07/12 04:05:50;;;;;;;20.38;15.73;;;;;;;-148.88;100.00;76368.34;5096441;28;20119;-76
2022/07/12 04:08:16;;;;;;;19.88;14.93;;;;;;;-148.88;100.00;76358.19;5097554;28;20388;-76
2022/07/12 04:10:41;;;;;;;20.30;15.55;;;;;;;-148.88;100.00;76370.38;5097514;28;20024;-76
2022/07/12 04:13:07;;;;;;;17.75;13.98;;;;;;;-148.88;100.00;76360.22;5113037;28;20069;-75
2022/07/12 04:15:32;;;;;;;11.93;9.10;;;;;;;-148.88;100.00;76372.41;5097522;28;20031;-76
2022/07/12 04:17:57;;;;;;;12.82;10.02;;;;;;;-148.88;100.00;76362.25;5097615;28;20024;-76
2022/07/12 04:20:23;;;;;;;14.65;11.35;;;;;;;-148.88;100.00;76366.31;5098062;28;20024;-76
2022/07/12 04:22:48;;;;;;;12.95;9.40;;;;;;;-148.88;100.00;76364.28;5113348;28;20024;-76
2022/07/12 04:25:13;;;;;;;13.23;9.95;;;;;;;-148.88;100.00;76362.25;5098268;28;20020;-76
2022/07/12 04:27:38;;;;;;;15.48;12.00;;;;;;;-148.88;100.00;76350.06;5096918;28;20127;-77
2022/07/12 04:30:04;;;;;;;15.20;11.88;;;;;;;-148.88;100.00;76346.00;5097547;28;20098;-77
2022/07/12 04:32:30;;;;;;;16.33;13.10;;;;;;;-148.88;100.00;76333.81;5098157;28;20030;-77
2022/07/12 04:34:55;;;;;;;20.38;14.48;;;;;;;-148.88;100.00;76327.72;5098435;28;20020;-78
2022/07/12 04:37:20;;;;;;;20.23;13.55;;;;;;;-148.88;100.00;76331.78;5098445;28;20431;-77
2022/07/12 04:39:46;;;;;;;20.50;13.43;;;;;;;-148.88;100.00;76337.88;5097259;28;20024;-77
2022/07/12 04:42:11;;;;;;;17.85;12.90;;;;;;;-148.88;100.00;76329.75;5097538;28;20110;-77
2022/07/12 04:44:36;;;;;;;19.00;12.23;;;;;;;-148.88;100.00;76325.69;5098036;28;20027;-77
2022/07/12 04:47:02;;;;;;;15.80;11.57;;;;;;;-148.88;100.00;76331.78;5097753;28;20016;-77
2022/07/12 04:49:27;;;;;;;14.43;9.45;;;;;;;-148.88;100.00;76321.63;5097282;28;20473;-77
2022/07/12 04:51:53;;;;;;;16.70;10.00;;;;;;;-148.88;100.00;76321.63;5098062;28;20024;-77
2022/07/12 04:54:18;;;;;;;12.70;8.15;;;;;;;-148.88;100.00;76319.59;5098588;28;20106;-78
2022/07/12 04:56:43;;;;;;;14.23;8.52;;;;;;;-148.88;100.00;76319.59;5100104;28;20060;-77
2022/07/12 04:59:08;;;;;;;12.30;8.20;;;;;;;-148.88;100.00;76321.63;5099069;28;20024;-77
2022/07/12 05:01:34;;;;;;;12.68;7.82;;;;;;;-148.88;100.00;76317.56;5099439;28;20035;-77
2022/07/12 05:03:59;;;;;;;16.40;7.07;;;;;;;-148.88;100.00;76325.69;5098527;28;20052;-77
2022/07/12 05:06:25;;;;;;;12.60;7.10;;;;;;;-148.88;100.00;76339.91;5115333;22;20048;-83
2022/07/12 05:08:50;;;;;;;13.15;7.18;;;;;;;-148.88;100.00;76343.97;5094233;28;20111;-81
2022/07/12 05:11:16;;;;;;;11.80;7.38;;;;;;;-148.88;100.00;76354.13;5095119;28;20112;-81
2022/07/12 05:13:41;;;;;;;13.48;8.48;;;;;;;-148.88;100.00;76333.81;5095853;28;20024;-81
2022/07/12 05:16:08;;;;;;;12.88;10.48;;;;;;;-148.88;100.00;76315.53;5094859;28;20035;-81
2022/07/12 05:18:34;;;;;;;19.75;11.50;;;;;;;-148.88;100.00;76301.31;5094903;28;20024;-81
2022/07/12 05:20:59;;;;;;;15.68;11.00;;;;;;;-148.88;100.00;76295.22;5095453;28;20386;-81
2022/07/12 05:23:24;;;;;;;15.85;10.55;;;;;;;-148.88;100.00;76293.19;5095167;28;20339;-81
2022/07/12 05:25:50;;;;;;;13.20;10.65;;;;;;;-148.88;100.00;76285.06;5095201;28;20026;-81
2022/07/12 05:28:18;;;;;;;19.23;11.68;;;;;;;-148.88;100.00;76285.06;5094917;28;20024;-82
2022/07/12 05:30:43;;;;;;;17.48;11.18;;;;;;;-148.88;100.00;76264.75;5095529;28;20106;-81
2022/07/12 05:33:09;;;;;;;18.90;10.65;;;;;;;-148.88;100.00;76260.69;5110467;28;20060;-81
2022/07/12 05:35:34;;;;;;;14.18;10.55;;;;;;;-148.88;100.00;76264.75;5094788;28;20498;-81
2022/07/12 05:38:01;;;;;;;14.73;9.90;;;;;;;-148.88;100.00;76248.50;5094848;28;20358;-81
2022/07/12 05:40:26;;;;;;;14.40;10.30;;;;;;;-148.88;100.00;76236.31;5095011;28;20020;-81
2022/07/12 05:42:51;;;;;;;16.27;10.23;;;;;;;-148.88;100.00;76236.31;5094611;28;20130;-81
2022/07/12 05:45:17;;;;;;;13.43;9.50;;;;;;;-148.88;100.00;76220.06;5094487;28;20036;-81
2022/07/12 05:47:42;;;;;;;17.83;10.10;;;;;;;-148.88;100.00;76211.94;5093413;28;20035;-81
2022/07/12 05:50:08;;;;;;;14.70;10.65;;;;;;;-148.88;100.00;76203.81;5095087;28;20492;-81
2022/07/12 05:55:17;;;;;;;13.25;9.70;;;;;;;-148.88;100.00;76173.34;5094698;28;20063;-82
2022/07/12 05:57:42;;;;;;;13.25;10.05;;;;;;;-148.88;100.00;76169.28;5095734;28;20358;-81
2022/07/12 06:00:08;;;;;;;15.48;9.85;;;;;;;-148.88;100.00;76163.19;5094834;28;20028;-81
2022/07/12 06:02:34;;;;;;;14.25;9.75;;;;;;;-148.88;100.00;76157.09;5094703;28;20070;-81
2022/07/12 06:04:59;;;;;;;13.73;10.55;;;;;;;-148.88;100.00;76157.09;5095881;28;20025;-81
2022/07/12 06:07:24;;;;;;;14.80;10.40;;;;;;;-148.88;100.00;76146.94;5092984;28;20521;-81
2022/07/12 06:09:49;;;;;;;14.98;11.45;;;;;;;-148.88;100.00;76140.84;5094913;28;20024;-81
2022/07/12 06:12:14;;;;;;;15.32;10.77;;;;;;;-148.88;100.00;76126.59;5093186;28;20107;-81
2022/07/12 06:14:40;;;;;;;12.65;8.95;;;;;;;-148.88;100.00;76126.59;5094682;28;20020;-81
2022/07/12 06:17:08;;;;;;;12.07;9.73;;;;;;;-148.88;100.00;76110.34;5094340;28;20040;-81
2022/07/12 06:19:34;;;;;;;12.50;8.73;;;;;;;-148.88;100.00;76102.22;5092568;28;20020;-81
2022/07/12 06:22:00;;;;;;;10.55;8.15;;;;;;;-148.88;100.00;76092.06;5093817;28;20085;-81
2022/07/12 06:24:25;;;;;;;12.23;8.65;;;;;;;-148.88;100.00;76077.84;5094165;28;20362;-82
2022/07/12 06:26:50;;;;;;;10.98;7.80;;;;;;;-148.88;100.00;76100.19;5093924;28;20521;-81
2022/07/12 06:29:16;;;;;;;9.40;7.30;;;;;;;-148.88;100.00;76071.75;5093867;28;20020;-81
2022/07/12 06:31:41;;;;;;;11.20;7.00;;;;;;;-148.88;100.00;76063.63;5093752;28;20135;-81
2022/07/12 06:34:07;;;;;;;12.13;7.40;;;;;;;-148.88;100.00;76049.41;5093528;28;20031;-83
2022/07/12 06:36:32;;;;;;;7.65;6.45;;;;;;;-148.88;100.00;76041.28;5092613;28;20032;-83
2022/07/12 06:38:57;;;;;;;12.57;7.35;;;;;;;-148.88;100.00;76037.22;5093905;28;20025;-83
2022/07/12 06:41:22;;;;;;;10.23;6.72;;;;;;;-148.88;100.00;76027.06;5092870;28;20031;-82
2022/07/12 06:43:48;;;;;;;7.97;6.03;;;;;;;-148.88;100.00;76012.84;5093407;28;20069;-82
2022/07/12 06:46:13;;;;;;;12.30;7.32;;;;;;;-148.88;100.00;76004.72;5093391;28;20335;-82
2022/07/12 06:48:39;;;;;;;8.88;7.05;;;;;;;-148.88;100.00;75984.41;5092264;28;20020;-82
2022/07/12 06:51:04;;;;;;;10.85;7.35;;;;;;;-148.88;100.00;75972.22;5093885;28;20036;-82
2022/07/12 06:53:29;;;;;;;9.98;6.78;;;;;;;-148.88;100.00;75951.91;5093514;28;20019;-82
2022/07/12 06:55:57;;;;;;;8.13;6.03;;;;;;;-148.88;100.00;75935.66;5093592;28;20115;-82
2022/07/12 06:58:22;;;;;;;9.93;5.68;;;;;;;-148.88;100.00;75923.47;5093539;28;20490;-82
2022/07/12 07:00:47;;;;;;;6.97;5.20;;;;;;;-148.88;100.00;75913.31;5092050;28;20077;-82
2022/07/12 07:03:13;;;;;;;7.30;4.90;;;;;;;-148.88;100.00;75919.41;5093099;28;20028;-82
2022/07/12 07:05:38;;;;;;;7.00;4.70;;;;;;;-148.88;100.00;75903.16;5093474;28;20031;-82
2022/07/12 07:08:03;;;;;;;6.32;4.40;;;;;;;-148.88;98.58;75917.38;5093146;28;20032;-82
2022/07/12 07:10:29;;;;;;;7.55;5.10;;;;;;;-148.88;99.39;75907.22;5093110;28;20047;-82
2022/07/12 07:12:54;;;;;;;5.65;4.65;;;;;;;-148.88;99.74;75901.13;5091608;28;20474;-82
2022/07/12 07:15:19;;;;;;;5.45;4.75;;;;;;;-148.88;98.57;75886.91;5093002;28;20027;-83
2022/07/12 07:17:44;;;;;;;5.63;4.65;;;;;;;-148.88;96.13;75907.22;5092766;28;20016;-82
2022/07/12 07:20:10;;;;;;;6.25;4.45;;;;;;;-148.88;96.60;75895.03;5096269;28;20386;-81
2022/07/12 07:22:36;;;;;;;7.43;4.97;;;;;;;-148.88;95.42;75923.47;5097157;28;20466;-82
2022/07/12 07:25:02;;;;;;;7.00;5.28;;;;;;;-148.88;95.97;75925.50;5095728;28;20051;-83
2022/07/12 07:27:27;;;;;;;5.28;4.55;;;;;;;-148.88;96.04;75931.59;5097372;28;20051;-82
2022/07/12 07:32:36;;;;;;;5.75;4.72;;;;;;;-148.88;94.89;75929.56;5097265;28;20106;-82
2022/07/12 07:35:04;;;;;;;5.45;4.57;;;;;;;-148.88;93.97;75927.53;5096579;28;20036;-85
2022/07/12 07:37:29;;;;;;;5.65;4.47;;;;;;;-148.88;94.54;75923.47;5096308;28;20024;-85
2022/07/12 07:39:54;;;;;;;6.82;4.82;;;;;;;-148.88;93.12;75909.25;5096928;28;20031;-84
2022/07/12 07:42:20;;;;;;;4.82;4.32;;;;;;;-148.88;94.21;75886.91;5096207;28;20016;-84
2022/07/12 07:44:45;;;;;;;5.45;4.22;;;;;;;-148.88;93.57;75880.81;5097566;28;20455;-84
2022/07/12 07:47:10;;;;;;;7.07;4.80;;;;;;;-148.88;93.07;75854.41;5096139;28;20084;-83
2022/07/12 07:49:36;;;;;;;5.07;3.80;;;;;;;-148.88;91.77;75838.16;5098381;28;20092;-83
2022/07/12 07:52:01;;;;;;;4.80;3.83;;;;;;;-148.88;90.31;75854.41;5097066;28;20020;-83
2022/07/12 07:54:27;;;;;;;5.28;4.03;;;;;;;-148.88;89.47;75852.38;5097001;28;20494;-83
2022/07/12 07:56:52;;;;;;;5.35;3.80;;;;;;;-148.88;89.46;75848.31;5097035;28;20112;-83
2022/07/12 07:59:17;;;;;;;4.55;3.50;;;;;;;-148.88;89.14;75846.28;5097868;28;20047;-84
2022/07/12 08:01:44;;;;;;;4.20;3.65;;;;;;;-148.88;88.14;75828.00;5096045;28;20024;-81
2022/07/12 08:04:18;;;;;;;4.97;3.58;;;;;;;-148.88;87.03;75801.59;5097160;28;20039;-81
2022/07/12 08:06:43;;;;;;;5.32;3.80;;;;;;;-148.88;87.62;75805.66;5095231;28;20032;-81
2022/07/12 08:09:09;;;;;;;4.32;3.92;;;;;;;-148.88;88.31;75789.41;5097012;28;20035;-81
2022/07/12 08:11:35;;;;;;;5.03;4.03;;;;;;;-148.88;88.19;75777.22;5095200;28;20091;-81
2022/07/12 08:14:04;;;;;;;5.32;3.47;;;;;;;-148.88;88.86;75752.84;5096638;28;20020;-82
2022/07/12 08:16:30;;;;;;;5.22;3.70;;;;;;;-148.88;87.00;75748.78;5097363;28;20153;-82
2022/07/12 08:18:56;;;;;;;4.25;3.67;;;;;;;-148.88;89.17;75742.69;5097405;28;20028;-82
2022/07/12 08:21:21;;;;;;;5.72;3.72;;;;;;;-148.88;88.30;75736.59;5096100;28;20394;-82
2022/07/12 08:23:48;;;;;;;4.40;3.78;;;;;;;-148.88;88.50;75728.47;5094762;28;20104;-82
2022/07/12 08:26:13;;;;;;;5.25;3.42;;;;;;;-148.88;87.58;75712.22;5096829;28;20118;-82
2022/07/12 08:28:38;;;;;;;4.13;3.10;;;;;;;-148.88;88.13;75700.03;5095138;28;20052;-81
2022/07/12 08:31:04;;;;;;;5.07;3.50;;;;;;;-148.88;87.73;75689.88;5096798;28;20027;-82
2022/07/12 08:33:29;;;;;;;5.47;3.80;;;;;;;-148.88;86.39;75675.66;5097042;28;20035;-81
2022/07/12 08:35:54;;;;;;;4.00;3.28;;;;;;;-148.88;86.39;75671.59;5095353;28;20040;-82
2022/07/12 08:38:20;;;;;;;4.80;3.00;;;;;;;-148.88;84.53;75663.47;5096336;28;20058;-81
2022/07/12 08:40:45;;;;;;;3.92;2.90;;;;;;;-148.88;84.61;75663.47;5096944;28;20027;-82
2022/07/12 08:43:10;;;;;;;4.10;3.20;;;;;;;-148.88;84.15;75661.44;5095902;28;20338;-80
2022/07/12 08:45:36;;;;;;;4.13;3.40;;;;;;;-148.88;80.33;75663.47;5095727;28;20050;-81
2022/07/12 08:48:01;;;;;;;3.47;2.70;;;;;;;-148.88;81.51;75651.28;5095398;28;20050;-81
2022/07/12 08:50:27;;;;;;;3.85;2.80;;;;;;;-148.88;82.04;75639.09;5094767;28;20474;-82
2022/07/12 08:52:54;;;;;;;5.88;3.88;;;;;;;-148.88;79.61;75610.66;5095727;28;20067;-81
2022/07/12 08:55:31;;;;;;;3.67;2.80;;;;;;;-148.88;81.36;75651.28;5094814;28;20114;-81
2022/07/12 08:57:58;;;;;;;4.65;3.00;;;;;;;-148.88;81.39;75608.63;5095441;28;20020;-82
2022/07/12 09:00:25;;;;;;;3.67;2.72;;;;;;;-148.88;79.21;75606.59;5094728;28;20016;-81
2022/07/12 09:02:53;;;;;;;4.22;3.58;;;;;;;-148.88;78.42;75602.53;5095493;28;20024;-84
2022/07/12 09:05:21;;;;;;;4.53;4.13;;;;;;;-148.88;79.16;75614.72;5093849;28;20034;-85
2022/07/12 09:07:48;;;;;;;4.88;3.22;;;;;;;-148.88;79.18;75604.56;5093843;28;20019;-85
2022/07/12 09:10:14;;;;;;;3.35;2.80;;;;;;;-148.88;80.08;75590.34;5094019;28;20389;-84
2022/07/12 09:12:40;;;;;;;4.10;2.97;;;;;;;-148.88;79.15;75598.47;5094224;28;20496;-84
2022/07/12 09:15:17;;;;;;;4.50;3.22;;;;;;;-148.88;79.38;75549.75;5094710;28;20028;-85
2022/07/12 09:18:04;;;;;;;5.20;3.20;;;;;;;-148.88;83.64;75535.53;5095109;28;20016;-85
2022/07/12 09:20:34;;;;;;;5.15;3.50;;;;;;;-148.88;79.70;75525.38;5095013;28;20032;-84
2022/07/12 09:23:04;;;;;;;3.30;2.80;;;;;;;-148.88;77.66;75525.38;5095169;28;20591;-84
2022/07/12 09:25:32;;;;;;;4.15;2.88;;;;;;;-148.88;76.24;75511.16;5094615;28;20030;-84
2022/07/12 09:27:58;;;;;;;3.30;2.75;;;;;;;-148.88;74.68;75484.75;5095931;28;20098;-84
2022/07/12 09:30:25;;;;;;;4.72;3.10;;;;;;;-148.88;73.98;75478.66;5094670;28;20023;-84
2022/07/12 09:38:28;;;;;;;4.45;3.40;;;;;;;-148.88;73.54;75492.88;5094855;28;20443;-84
2022/07/12 09:40:53;;;;;;;3.60;2.83;;;;;;;-148.88;73.92;75440.06;5093884;28;20396;-84
2022/07/12 09:43:20;;;;;;;3.53;2.90;;;;;;;-148.88;74.49;75411.63;5094350;28;20020;-84
2022/07/12 09:45:48;;;;;;;3.97;3.03;;;;;;;-148.88;72.10;75395.38;5094541;28;20063;-84
2022/07/12 09:48:15;;;;;;;3.60;3.08;;;;;;;-148.88;72.35;75403.50;5094844;28;20024;-85
2022/07/12 09:50:45;;;;;;;3.05;2.75;;;;;;;-148.88;74.27;75383.19;5094870;28;20028;-84
2022/07/12 09:53:16;;;;;;;2.90;2.17;;;;;;;-148.88;74.17;75336.47;5094827;28;20024;-83
2022/07/12 09:55:44;;;;;;;4.15;2.40;;;;;;;-148.88;72.92;75297.88;5093239;28;20103;-86
2022/07/12 09:58:13;;;;;;;3.47;2.30;;;;;;;-148.88;74.88;75265.41;5094648;28;20035;-84
2022/07/12 10:00:38;;;;;;;4.10;2.70;;;;;;;-148.88;71.43;75247.13;5095009;28;20055;-83
2022/07/12 10:03:05;;;;;;;2.65;2.28;;;;;;;-148.88;71.27;75204.47;5096697;28;20024;-82
2022/07/12 10:05:32;;;;;;;5.72;2.60;;;;;;;-148.88;68.29;75151.66;5098452;28;20090;-82
2022/07/12 10:07:58;;;;;;;2.92;2.17;;;;;;;-148.88;64.23;75180.09;5097139;28;20016;-82
2022/07/12 10:10:24;;;;;;;3.53;2.42;;;;;;;-148.88;64.41;75186.19;5098204;28;20023;-82
2022/07/12 10:12:51;;;;;;;3.15;1.95;;;;;;;-148.88;63.83;75163.84;5101510;28;20032;-82
2022/07/12 10:15:20;;;;;;;2.70;2.10;;;;;;;-148.88;65.43;75155.72;5095536;28;20030;-83
2022/07/12 10:17:58;;;;;;;4.28;2.30;;;;;;;-148.88;62.30;75149.63;5095083;28;20050;-82
2022/07/12 10:20:26;;;;;;;2.55;2.10;;;;;;;-148.88;65.16;75155.72;5094832;28;20035;-82
2022/07/12 10:23:15;;;;;;;4.30;2.40;;;;;;;-148.88;63.28;75184.16;5095766;28;20048;-83
2022/07/12 10:25:40;;;;;;;3.10;2.00;;;;;;;-148.88;62.36;75086.69;5095699;28;20039;-82
2022/07/12 10:28:06;;;;;;;3.83;1.90;;;;;;;-148.88;61.66;75133.38;5096351;28;20390;-82
2022/07/12 10:30:42;;;;;;;3.03;1.70;;;;;;;-148.88;60.16;75078.56;5095747;28;20016;-82
2022/07/12 10:33:15;;;;;;;2.58;1.70;;;;;;;-148.88;59.98;75072.47;5095364;28;20547;-83
2022/07/12 10:35:58;;;;;;;2.35;1.52;;;;;;;-148.88;59.47;75056.22;5095261;28;20036;-83
2022/07/12 10:38:23;;;;;;;2.92;1.50;;;;;;;-148.88;61.90;75021.69;5093261;28;20032;-83
2022/07/12 10:40:50;;;;;;;3.15;1.67;;;;;;;-148.88;59.45;75003.41;5095672;28;20031;-83
2022/07/12 10:43:17;;;;;;;2.88;1.58;;;;;;;-148.88;58.65;74966.84;5094182;28;20024;-83
2022/07/12 10:45:44;;;;;;;2.00;1.25;;;;;;;-148.88;55.43;74968.88;5093853;28;20105;-82
2022/07/12 10:48:12;;;;;;;1.77;1.20;;;;;;;-148.88;55.82;74956.69;5094871;28;20047;-82
2022/07/12 10:50:48;;;;;;;2.28;1.40;;;;;;;-148.88;57.21;74989.19;5094653;28;20030;-82
2022/07/12 10:53:22;;;;;;;1.63;1.27;;;;;;;-148.88;56.69;74916.09;5091812;28;20027;-82
2022/07/12 10:56:07;;;;;;;4.22;1.70;;;;;;;-148.88;53.87;74879.53;5092713;28;20016;-83
2022/07/12 10:58:35;;;;;;;2.47;1.20;;;;;;;-148.88;53.21;74851.09;5094395;28;20029;-83
2022/07/12 11:01:05;;;;;;;1.98;1.25;;;;;;;-148.88;52.09;74818.59;5093810;28;20504;-82
2022/07/12 11:03:36;;;;;;;1.92;1.30;;;;;;;-148.88;52.31;74806.44;5093740;28;20078;-83
2022/07/12 11:06:06;;;;;;;2.90;1.60;;;;;;;-148.88;51.06;74853.13;5211251;22;20051;-83
2022/07/12 11:08:31;;;;;;;1.75;1.17;;;;;;;-148.88;51.35;74851.09;5095147;28;20031;-83
2022/07/12 11:10:58;;;;;;;2.63;1.15;;;;;;;-148.88;53.10;74814.53;5096248;28;20050;-83
2022/07/12 11:13:25;;;;;;;1.70;1.15;;;;;;;-148.88;50.76;74794.25;5095916;28;20036;-84
2022/07/12 11:16:00;;;;;;;1.65;1.00;;;;;;;-148.88;52.76;74765.81;5093662;28;20106;-84